This is the latest recevied weather packets stored in our database for station/object E27EKO-13. If no packets are shown the sender has not sent any weather packets the latest 10 day(s).
| Time | Temp. | Humidity | Pressure | Rain* | Wind** | Luminosity | Snow |
|---|---|---|---|---|---|---|---|
| 1787966896 | 35° C | 64% | 1008 hPa | - | - | 0 W/m² | - |
| 1787966574 | 33.89° C | 66% | 1008 hPa | - | - | 0 W/m² | - |
| 1787966252 | 32.78° C | 70% | 1008 hPa | - | - | 0 W/m² | - |
| 1787965842 | 32.78° C | 72% | 1008 hPa | - | - | 0 W/m² | - |
| 1787965764 | 32.78° C | 71% | 1008 hPa | - | - | 0 W/m² | - |
| 1787965442 | 33.33° C | 69% | 1008 hPa | - | - | 0 W/m² | - |
| 1787965120 | 33.33° C | 68% | 1008 hPa | - | - | 0 W/m² | - |
| 1787964798 | 33.89° C | 67% | 1008 hPa | - | - | 0 W/m² | - |
| 1787964476 | 33.33° C | 67% | 1008 hPa | - | - | 0 W/m² | - |
| 1787964154 | 33.33° C | 68% | 1008 hPa | - | - | 0 W/m² | - |
| 1787963832 | 33.89° C | 67% | 1007 hPa | - | - | 0 W/m² | - |
| 1787963510 | 32.78° C | 70% | 1007 hPa | - | - | 0 W/m² | - |
| 1787963188 | 32.22° C | 73% | 1007 hPa | - | - | 0 W/m² | - |
| 1787962866 | 31.67° C | 75% | 1007 hPa | - | - | 0 W/m² | - |
| 1787962544 | 32.22° C | 74% | 1007 hPa | - | - | 0 W/m² | - |
| 1787962222 | 31.67° C | 75% | 1007 hPa | - | - | 0 W/m² | - |
| 1787961900 | 31.67° C | 76% | 1007 hPa | - | - | 0 W/m² | - |
| 1787961578 | 31.67° C | 76% | 1007 hPa | - | - | 0 W/m² | - |
| 1787961255 | 31.67° C | 76% | 1007 hPa | - | - | 0 W/m² | - |
| 1787960933 | 31.67° C | 77% | 1007 hPa | - | - | 0 W/m² | - |
| 1787960611 | 31.67° C | 77% | 1007 hPa | - | - | 0 W/m² | - |
| 1787960290 | 32.22° C | 74% | 1007 hPa | - | - | 0 W/m² | - |
| 1787959968 | 31.11° C | 78% | 1007 hPa | - | - | 0 W/m² | - |
| 1787959645 | 31.11° C | 79% | 1007 hPa | - | - | 0 W/m² | - |
| 1787959323 | 30.56° C | 79% | 1007 hPa | - | - | 0 W/m² | - |
* Rain since midnight (hover to see other rain measurements)
** Current wind speed in m/s (hover to see current wind gust speed)